PACV METAR and TAF weather

Enter ICAO airport designator
Station Type Date Time Source
PACV METAR 2019/10/19 06:53 UTC NOAA

PACV 190653Z 02005KT 10SM BKN100 OVC120 06/02 A2937 RMK AO2 SLP945 T00560017


Station Type Date Time Source
PACV Decoded METAR 2019/10/19 06:53 UTC NOAA

MERLE K. SMITH AIRPORT, AK, United States (PACV) 60-30N 145-29W 13M
Oct 19, 2019 - 02:53 AM EDT / 2019.10.19 0653 UTC
Wind: from the NNE (020 degrees) at 6 MPH (5 KT):0
Visibility: 10 mile(s):0
Sky conditions: overcast
Temperature: 42.1 F (5.6 C)
Dew Point: 35.1 F (1.7 C)
Relative Humidity: 75%
Pressure (altimeter): 29.37 in. Hg (994 hPa)
ob: PACV 190653Z 02005KT 10SM BKN100 OVC120 06/02 A2937 RMK AO2 SLP945 T00560017
cycle: 7

Station Type Date Time Source
PACV TAF 2019/10/19 06:45 UTC NOAA

TAF PACV 190543Z 1906/2006 VRB03KT P6SM FEW060 OVC100
FM190800 VRB03KT P6SM VCSH FEW035 OVC050
FM192100 05005KT P6SM SCT050 BKN100

Example: see airport list